Flight Track Log - Related Links

Times and Time Zones

All times are in EDT time to prevent confusion due to time zone crossing. See the SWA757 flight status page for this flight to view local times or setup timezone preferences in your user account.

Time Position Orientation Groundspeed Altitude Reporting Facility
EDT Latitude Longitude Course Direction KTS MPH feet Rate Location/Type
Mon 11:15:41 PM 37.3667 -121.9333 332° Northwest 145 167 1,400  Level Northern Cal TRACON
Mon 11:16:40 PM 37.4167 -121.9667 332° Northwest 173 199 4,400 3,227 Climbing Northern Cal TRACON
Mon 11:17:40 PM 37.4500 -121.9333 38° Northeast 225 259 7,800 2,900 Climbing Northern Cal TRACON
Mon 11:18:40 PM 37.4000 -121.8667 133° Southeast 309 356 10,200 2,292 Climbing Northern Cal TRACON
Mon 11:19:09 PM 37.3708 -121.8389 143° Southeast 308 354 11,200 3,267 Climbing Oakland Center
Mon 11:20:10 PM 37.2878 -121.7492 139° Southeast 365 420 15,100 3,344 Climbing Oakland Center
Mon 11:21:11 PM 37.2008 -121.6453 136° Southeast 431 496 18,000 3,295 Climbing Oakland Center
Mon 11:22:12 PM 37.1092 -121.5350 136° Southeast 455 524 21,800 3,246 Climbing Oakland Center
Mon 11:23:13 PM 37.0158 -121.4333 139° Southeast 474 545 24,600 3,197 Climbing Oakland Center
Mon 11:24:14 PM 36.9181 -121.3283 139° Southeast 466 536 28,300 3,246 Climbing Oakland Center
Mon 11:25:15 PM 36.8086 -121.2119 140° Southeast 462 532 31,200 2,557 Climbing Oakland Center
Mon 11:26:16 PM 36.7094 -121.1067 140° Southeast 468 539 33,500 2,115 Climbing Oakland Center
Mon 11:27:17 PM 36.6122 -121.0000 139° Southeast 467 537 35,500 1,377 Climbing Oakland Center
Mon 11:28:18 PM 36.5092 -120.8931 140° Southeast 480 552 36,300 1,230 Climbing Oakland Center
Mon 11:29:19 PM 36.4056 -120.7764 138° Southeast 498 573 38,000 1,574 Climbing Oakland Center
Mon 11:30:20 PM 36.3008 -120.6650 139° Southeast 497 572 39,500 1,279 Climbing Oakland Center
Mon 11:31:21 PM 36.1931 -120.5531 140° Southeast 502 578 40,600 689 Climbing Oakland Center
Mon 11:32:22 PM 36.0853 -120.4383 139° Southeast 511 588 40,900 197 Climbing Oakland Center
Mon 11:33:23 PM 35.9806 -120.3278 139° Southeast 497 572 41,000 49 Climbing Oakland Center
Mon 11:34:24 PM 35.8747 -120.2172 140° Southeast 495 570 41,000  Level Oakland Center
Mon 11:35:25 PM 35.7478 -120.0844 140° Southeast 495 570 41,000  Level Oakland Center
Mon 11:36:26 PM 35.6414 -119.9733 140° Southeast 496 571 41,000  Level Oakland Center
Mon 11:37:27 PM 35.5292 -119.8753 145° Southeast 491 565 41,000  Level Oakland Center
Mon 11:38:28 PM 35.4172 -119.7794 145° Southeast 487 560 41,000  Level Oakland Center
Mon 11:39:29 PM 35.3064 -119.6850 145° Southeast 484 557 41,000  Level Oakland Center
Mon 11:40:30 PM 35.1967 -119.5903 145° Southeast 481 554 41,000  Level Oakland Center
Mon 11:41:30 PM 35.0869 -119.4961 145° Southeast 481 554 41,000  Level Oakland Center
Mon 11:41:45 PM 35.0639 -119.4775 147° Southeast 482 555 41,000  Level Los Angeles Center
Mon 11:42:46 PM 34.9536 -119.3831 145° Southeast 484 557 41,000  Level Los Angeles Center
Mon 11:43:48 PM 34.8425 -119.2889 145° Southeast 485 558 41,000  Level Los Angeles Center
Mon 11:44:50 PM 34.7297 -119.1956 146° Southeast 488 562 41,000  Level Los Angeles Center
Mon 11:45:51 PM 34.6108 -119.0967 146° Southeast 481 554 41,000  Level Los Angeles Center
Mon 11:46:53 PM 34.5025 -119.0036 145° Southeast 477 549 41,000  Level Los Angeles Center
Mon 11:47:55 PM 34.3936 -118.9131 146° Southeast 476 548 41,000  Level Los Angeles Center
Mon 11:48:56 PM 34.2897 -118.8119 141° Southeast 482 555 41,000 -634 Level Los Angeles Center
Mon 11:49:58 PM 34.1703 -118.6844 139° Southeast 478 550 39,700 -1,065 Descending Los Angeles Center
Mon 11:51:00 PM 34.0739 -118.5814 138° Southeast 466 536 38,800 -927 Descending Los Angeles Center
Mon 11:52:01 PM 33.9761 -118.4764 138° Southeast 469 540 37,800 -1,415 Descending Los Angeles Center
Mon 11:53:03 PM 33.8794 -118.3650 136° Southeast 473 544 35,900 -2,537 Descending Los Angeles Center
Mon 11:54:04 PM 33.7878 -118.2508 134° Southeast 472 543 32,600 -3,073 Descending Los Angeles Center
Mon 11:55:06 PM 33.6931 -118.1253 132° Southeast 479 551 29,600 -2,293 Descending Los Angeles Center
Mon 11:56:07 PM 33.6047 -118.0136 134° Southeast 460 529 27,900 -2,000 Descending Los Angeles Center
Mon 11:57:09 PM 33.5206 -117.9061 133° Southeast 443 510 25,500 -2,323 Descending Los Angeles Center
Mon 11:58:11 PM 33.4386 -117.8036 134° Southeast 428 493 23,100 -2,293 Descending Los Angeles Center
Mon 11:59:12 PM 33.3586 -117.7025 133° Southeast 419 482 20,800 -2,526 Descending Los Angeles Center
Tue 12:00:05 AM 33.2833 -117.6000 131° Southeast 404 465 18,300 -2,496 Descending Southern California TRACON
Tue 12:01:05 AM 33.2000 -117.5167 140° Southeast 392 451 16,100 -2,158 Descending Southern California TRACON
Tue 12:01:59 AM 33.1167 -117.4500 146° Southeast 375 432 14,200 -2,167 Descending Southern California TRACON
Tue 12:02:17 AM 33.0958 -117.4358 150° Southeast 376 433 13,500 -2,250 Descending Los Angeles Center
Tue 12:03:19 AM 33.0117 -117.3692 146° Southeast 366 421 11,200 -1,882 Descending Los Angeles Center
Tue 12:03:59 AM 32.9500 -117.3167 144° Southeast 348 400 10,300 -1,260 Descending Southern California TRACON
Tue 12:04:59 AM 32.8833 -117.2667 148° Southeast 316 364 9,100 -1,229 Descending Southern California TRACON
Tue 12:05:22 AM 32.8583 -117.2472 147° Southeast 321 369 8,600 -1,714 Descending Los Angeles Center
Tue 12:06:23 AM 32.8036 -117.1747 132° Southeast 311 358 6,700 -1,670 Descending Los Angeles Center
Tue 12:06:59 AM 32.7833 -117.1000 108° East 276 318 5,900 -1,063 Descending Southern California TRACON
Tue 12:07:59 AM 32.7667 -117.0333 107° East 249 287 5,000 -446 Descending Southern California TRACON
Tue 12:09:00 AM 32.7500 -116.9500 103° East 217 250 5,000 -397 Level Southern California TRACON
Tue 12:10:00 AM 32.7000 -116.9500 180° South 188 216 4,200 -1,000 Descending Southern California TRACON
Tue 12:11:00 AM 32.6833 -117.0167 253° West 184 212 3,000 -1,105 Descending Southern California TRACON
Tue 12:11:54 AM 32.7000 -117.0667 292° West 185 213 2,100 -789 Descending Southern California TRACON
Tue 12:12:54 AM 32.7167 -117.1167 292° West 149 171 1,500 -540 Descending Southern California TRACON
Tue 12:13:34 AM 32.7222 -117.1375 288° West 150 173 1,200 -706 Descending Los Angeles Center
Tue 12:14:36 AM 32.7294 -117.1686 285° West 141 162 300 -871 Descending Los Angeles Center
Tue 12:16:00 AM 32.7333 -117.1833 264° West  Level FlightAware Approximate
Tue 12:23:00 AM 32.7336 -117.1897 264° West  Level Estimated

Login

Don't have an account? Register now (free) for customized features, flight alerts, and more!